createdAt,value
2023-04-05T00:00:46.096Z,0.60
2023-04-05T00:05:50.015Z,0.60
2023-04-05T00:10:52.283Z,0.60
2023-04-05T00:15:54.878Z,0.70
2023-04-05T00:20:56.599Z,0.70
2023-04-05T00:25:58.390Z,0.70
2023-04-05T00:31:00.245Z,0.70
2023-04-05T00:36:28.500Z,0.60
2023-04-05T00:41:30.621Z,0.50
2023-04-05T00:46:34.954Z,0.20
2023-04-05T00:51:38.130Z,0.00
2023-04-05T00:56:41.506Z,-0.30
2023-04-05T01:01:43.528Z,-0.40
2023-04-05T01:07:23.740Z,-0.60
2023-04-05T01:12:32.662Z,-0.60
2023-04-05T01:17:39.647Z,-0.80
2023-04-05T01:23:09.839Z,-0.90
2023-04-05T01:28:49.036Z,-1.00
2023-04-05T01:34:29.905Z,-1.20
2023-04-05T01:39:33.856Z,-1.30
2023-04-05T01:44:35.703Z,-1.30
2023-04-05T01:49:37.519Z,-1.40
2023-04-05T01:54:39.271Z,-1.30
2023-04-05T01:59:41.013Z,-1.40
2023-04-05T02:04:43.359Z,-1.50
2023-04-05T02:09:45.285Z,-1.50
2023-04-05T02:14:48.090Z,-1.60
2023-04-05T02:19:52.845Z,-1.60
2023-04-05T02:24:54.667Z,-1.70
2023-04-05T02:29:57.369Z,-1.70
2023-04-05T02:34:59.178Z,-1.80
2023-04-05T02:40:01.208Z,-1.80
2023-04-05T02:45:03.155Z,-1.90
2023-04-05T02:50:06.386Z,-1.80
2023-04-05T02:55:14.064Z,-1.90
2023-04-05T03:00:16.492Z,-1.90
2023-04-05T03:05:18.741Z,-2.00
2023-04-05T03:10:25.185Z,-2.00
2023-04-05T03:15:33.284Z,-2.10
2023-04-05T03:20:41.396Z,-2.20
2023-04-05T03:25:53.315Z,-2.20
2023-04-05T03:30:56.698Z,-2.20
2023-04-05T03:35:59.924Z,-2.40
2023-04-05T03:41:04.800Z,-2.30
2023-04-05T03:46:06.914Z,-2.30
2023-04-05T03:51:09.015Z,-2.40
2023-04-05T03:56:11.143Z,-2.40
2023-04-05T04:01:24.649Z,-2.40
2023-04-05T04:06:26.922Z,-2.50
2023-04-05T04:11:29.078Z,-2.50
2023-04-05T04:16:31.088Z,-2.60
2023-04-05T04:21:33.712Z,-2.50
2023-04-05T04:26:54.663Z,-2.60
2023-04-05T04:32:02.315Z,-2.60
2023-04-05T04:37:32.506Z,-2.60
2023-04-05T04:42:58.744Z,-2.70
2023-04-05T04:48:18.444Z,-2.60
2023-04-05T04:53:36.875Z,-2.70
2023-04-05T04:58:38.675Z,-2.80
2023-04-05T05:03:43.064Z,-2.80
2023-04-05T05:08:46.388Z,-2.80
2023-04-05T05:13:51.926Z,-2.70
2023-04-05T05:18:58.312Z,-2.60
2023-04-05T05:24:05.310Z,-2.60
2023-04-05T05:29:07.162Z,-2.50
2023-04-05T05:34:14.119Z,-2.50
2023-04-05T05:39:23.659Z,-1.70
2023-04-05T05:44:25.517Z,-0.20
2023-04-05T05:49:27.276Z,0.70
2023-04-05T05:54:29.266Z,1.40
2023-04-05T05:59:31.216Z,1.50
2023-04-05T06:04:34.308Z,1.00
2023-04-05T06:09:36.409Z,1.30
2023-04-05T06:14:38.183Z,2.00
2023-04-05T06:19:40.004Z,1.80
2023-04-05T06:24:41.880Z,1.60
2023-04-05T06:29:43.722Z,2.10
2023-04-05T06:34:48.512Z,1.80
2023-04-05T06:39:50.370Z,2.70
2023-04-05T06:44:52.233Z,2.80
2023-04-05T06:49:53.995Z,3.00
2023-04-05T06:54:56.597Z,3.60
2023-04-05T06:59:58.614Z,4.00
2023-04-05T07:05:05.293Z,3.90
2023-04-05T07:10:07.548Z,4.10
2023-04-05T07:15:09.702Z,4.20
2023-04-05T07:20:12.338Z,4.20
2023-04-05T07:25:14.316Z,4.60
2023-04-05T07:30:16.143Z,5.00
2023-04-05T07:35:18.057Z,5.40
2023-04-05T07:40:19.857Z,5.40
2023-04-05T07:45:21.672Z,5.60
2023-04-05T07:50:23.440Z,5.80
2023-04-05T07:55:27.310Z,5.80
2023-04-05T08:00:29.057Z,5.90
2023-04-05T08:05:31.330Z,5.90
2023-04-05T08:10:33.154Z,6.10
2023-04-05T08:15:35.162Z,5.60
2023-04-05T08:20:39.474Z,5.90
2023-04-05T08:25:42.743Z,6.00
2023-04-05T08:30:45.962Z,6.10
2023-04-05T08:35:47.863Z,6.10
2023-04-05T08:40:49.788Z,6.10
2023-04-05T08:45:52.697Z,6.00
2023-04-05T08:50:55.877Z,6.00
2023-04-05T08:56:01.429Z,6.60
2023-04-05T09:01:05.852Z,6.70
2023-04-05T09:06:11.775Z,6.50
2023-04-05T09:11:15.341Z,6.70
2023-04-05T09:16:17.627Z,6.90
2023-04-05T09:21:20.508Z,7.10
2023-04-05T09:26:24.277Z,6.70
2023-04-05T09:31:33.884Z,6.80
2023-04-05T09:36:36.504Z,6.60
2023-04-05T09:41:39.360Z,7.30
2023-04-05T09:46:41.827Z,7.70
2023-04-05T09:51:46.139Z,7.60
2023-04-05T09:56:57.620Z,7.70
2023-04-05T10:01:59.691Z,7.80
2023-04-05T10:07:01.878Z,7.10
2023-04-05T10:12:05.188Z,6.80
2023-04-05T10:17:16.143Z,7.10
2023-04-05T10:22:25.802Z,7.30
2023-04-05T10:27:33.125Z,7.10
2023-04-05T10:33:11.874Z,7.60
2023-04-05T10:38:28.660Z,7.80
2023-04-05T10:43:34.389Z,7.70
2023-04-05T10:48:59.186Z,7.50
2023-04-05T10:54:01.403Z,7.60
2023-04-05T10:59:04.045Z,8.00
2023-04-05T11:04:16.405Z,7.80
2023-04-05T11:09:22.634Z,7.50
2023-04-05T11:14:34.883Z,7.10
2023-04-05T11:19:46.446Z,7.30
2023-04-05T11:24:58.785Z,7.10
2023-04-05T11:30:02.246Z,7.50
2023-04-05T11:35:12.959Z,7.40
2023-04-05T11:40:25.815Z,7.40
2023-04-05T11:45:31.853Z,8.00
2023-04-05T11:50:35.767Z,7.90
2023-04-05T11:55:39.355Z,7.60
2023-04-05T12:00:42.316Z,7.90
2023-04-05T12:05:51.785Z,8.20
2023-04-05T12:10:57.861Z,7.90
2023-04-05T12:16:01.510Z,8.00
2023-04-05T12:21:08.353Z,8.40
2023-04-05T12:26:10.396Z,8.70
2023-04-05T12:31:12.273Z,9.00
2023-04-05T12:36:15.364Z,9.10
2023-04-05T12:41:17.121Z,9.20
2023-04-05T12:46:18.924Z,9.00
2023-04-05T12:51:24.617Z,8.00
2023-04-05T12:56:29.774Z,7.90
2023-04-05T13:01:32.093Z,7.70
2023-04-05T13:06:33.874Z,8.20
2023-04-05T13:11:35.760Z,8.70
2023-04-05T13:16:37.615Z,8.60
2023-04-05T13:21:41.197Z,8.60
2023-04-05T13:26:43.023Z,8.50
2023-04-05T13:31:44.822Z,8.40
2023-04-05T13:36:48.377Z,8.30
2023-04-05T13:41:50.227Z,7.80
2023-04-05T13:46:51.965Z,7.60
2023-04-05T13:51:53.872Z,7.70
2023-04-05T13:56:57.035Z,8.00
2023-04-05T14:01:59.010Z,7.90
2023-04-05T14:07:00.994Z,8.10
2023-04-05T14:12:04.030Z,8.20
2023-04-05T14:17:07.157Z,8.30
2023-04-05T14:22:09.683Z,8.40
2023-04-05T14:27:11.753Z,8.00
2023-04-05T14:32:13.760Z,8.20
2023-04-05T14:37:18.083Z,8.40
2023-04-05T14:42:22.317Z,8.00
2023-04-05T14:47:24.396Z,8.10
2023-04-05T14:52:26.369Z,8.40
2023-04-05T14:57:29.346Z,8.60
2023-04-05T15:02:31.876Z,8.30
2023-04-05T15:07:34.660Z,8.10
2023-04-05T15:12:36.839Z,8.30
2023-04-05T15:17:38.769Z,8.00
2023-04-05T15:22:41.165Z,7.60
2023-04-05T15:27:43.110Z,7.60
2023-04-05T15:32:45.089Z,7.50
2023-04-05T15:37:47.128Z,7.50
2023-04-05T15:42:49.327Z,7.40
2023-04-05T15:47:51.520Z,7.30
2023-04-05T15:52:53.391Z,7.20
2023-04-05T15:57:55.285Z,7.00
2023-04-05T16:03:00.624Z,6.80
2023-04-05T16:08:03.224Z,6.70
2023-04-05T16:13:05.286Z,6.70
2023-04-05T16:18:09.083Z,6.70
2023-04-05T16:23:11.499Z,6.60
2023-04-05T16:28:13.275Z,6.60
2023-04-05T16:33:15.210Z,6.60
2023-04-05T16:38:17.154Z,6.60
2023-04-05T16:43:19.110Z,6.50
2023-04-05T16:48:22.356Z,6.30
2023-04-05T16:53:24.738Z,6.10
2023-04-05T16:58:26.741Z,5.90
2023-04-05T17:03:28.818Z,5.90
2023-04-05T17:08:30.887Z,5.80
2023-04-05T17:13:33.366Z,5.80
2023-04-05T17:18:35.265Z,5.70
2023-04-05T17:23:37.266Z,5.50
2023-04-05T17:28:39.354Z,5.30
2023-04-05T17:33:41.508Z,5.00
2023-04-05T17:38:43.813Z,4.80
2023-04-05T17:43:46.804Z,4.70
2023-04-05T17:48:49.425Z,4.50
2023-04-05T17:53:51.245Z,4.30
2023-04-05T17:58:53.639Z,4.10
2023-04-05T18:03:55.794Z,3.90
2023-04-05T18:08:57.642Z,3.70
2023-04-05T18:13:59.488Z,3.50
2023-04-05T18:19:01.317Z,3.20
2023-04-05T18:24:03.176Z,3.00
2023-04-05T18:29:05.439Z,2.80
2023-04-05T18:34:07.636Z,2.70
2023-04-05T18:39:09.659Z,2.60
2023-04-05T18:44:11.732Z,2.40
2023-04-05T18:49:15.924Z,2.40
2023-04-05T18:54:18.556Z,2.20
2023-04-05T18:59:20.723Z,2.30
2023-04-05T19:04:22.812Z,2.30
2023-04-05T19:09:26.479Z,2.30
2023-04-05T19:14:28.329Z,2.30
2023-04-05T19:19:30.127Z,2.40
2023-04-05T19:24:31.890Z,2.30
2023-04-05T19:29:36.910Z,2.30
2023-04-05T19:34:38.942Z,2.30
2023-04-05T19:39:40.993Z,2.40
2023-04-05T19:44:52.573Z,2.40
2023-04-05T19:49:59.075Z,2.30
2023-04-05T19:55:02.111Z,2.20
2023-04-05T20:00:34.793Z,2.00
2023-04-05T20:05:42.843Z,1.90
2023-04-05T20:10:47.746Z,1.80
2023-04-05T20:15:49.879Z,1.60
2023-04-05T20:20:56.639Z,1.50
2023-04-05T20:25:58.505Z,1.40
2023-04-05T20:31:10.276Z,1.20
2023-04-05T20:36:13.454Z,1.20
2023-04-05T20:41:17.603Z,1.10
2023-04-05T20:46:19.850Z,1.00
2023-04-05T20:51:22.130Z,1.10
2023-04-05T20:56:24.195Z,1.00
2023-04-05T21:01:27.104Z,1.00
2023-04-05T21:06:34.471Z,1.10
2023-04-05T21:11:36.851Z,1.10
2023-04-05T21:16:38.925Z,1.10
2023-04-05T21:21:40.858Z,1.10
2023-04-05T21:26:42.716Z,1.00
2023-04-05T21:31:44.574Z,1.00
2023-04-05T21:36:46.467Z,0.90
2023-04-05T21:41:48.275Z,0.70
2023-04-05T21:46:50.271Z,0.60
2023-04-05T21:51:52.233Z,0.60
2023-04-05T21:56:54.070Z,0.60
2023-04-05T22:01:55.961Z,0.60
2023-04-05T22:06:57.817Z,0.60
2023-04-05T22:12:01.439Z,0.50
2023-04-05T22:17:03.405Z,0.40
2023-04-05T22:22:05.534Z,0.20
2023-04-05T22:27:07.361Z,0.10
2023-04-05T22:32:09.307Z,0.10
2023-04-05T22:37:11.160Z,0.20
2023-04-05T22:42:12.991Z,0.10
2023-04-05T22:47:14.912Z,0.10
2023-04-05T22:52:16.707Z,0.10
2023-04-05T22:57:18.704Z,0.10
2023-04-05T23:02:21.324Z,0.00
2023-04-05T23:07:23.164Z,0.10
2023-04-05T23:12:25.242Z,0.00
2023-04-05T23:17:27.054Z,-0.10
2023-04-05T23:22:29.004Z,-0.10
2023-04-05T23:27:31.446Z,-0.20
2023-04-05T23:32:33.265Z,-0.30
2023-04-05T23:37:35.089Z,-0.20
2023-04-05T23:42:37.006Z,-0.20
2023-04-05T23:47:38.941Z,-0.10
2023-04-05T23:52:40.776Z,-0.20
2023-04-05T23:57:42.612Z,-0.30
